sensor_id;sensor_type;location;lat;lon;timestamp;P1;durP1;ratioP1;P2;durP2;ratioP2
11245;SDS011;59870;50.106;8.580;2023-10-09T00:00:13;7.20;;;6.70;;
11245;SDS011;59870;50.106;8.580;2023-10-09T00:03:00;6.60;;;6.20;;
11245;SDS011;59870;50.106;8.580;2023-10-09T00:05:28;6.57;;;6.20;;
11245;SDS011;59870;50.106;8.580;2023-10-09T00:08:07;6.93;;;6.43;;
11245;SDS011;59870;50.106;8.580;2023-10-09T00:10:36;7.57;;;7.00;;
11245;SDS011;59870;50.106;8.580;2023-10-09T00:13:13;7.30;;;6.73;;
11245;SDS011;59870;50.106;8.580;2023-10-09T00:15:40;6.57;;;6.17;;
11245;SDS011;59870;50.106;8.580;2023-10-09T00:18:09;6.27;;;5.77;;
11245;SDS011;59870;50.106;8.580;2023-10-09T00:20:39;5.77;;;5.07;;
11245;SDS011;59870;50.106;8.580;2023-10-09T00:23:10;6.17;;;5.67;;
11245;SDS011;59870;50.106;8.580;2023-10-09T00:25:49;5.70;;;5.37;;
11245;SDS011;59870;50.106;8.580;2023-10-09T00:28:37;6.63;;;6.00;;
11245;SDS011;59870;50.106;8.580;2023-10-09T00:31:08;6.00;;;5.50;;
11245;SDS011;59870;50.106;8.580;2023-10-09T00:33:42;6.10;;;5.60;;
11245;SDS011;59870;50.106;8.580;2023-10-09T00:36:10;6.30;;;5.70;;
11245;SDS011;59870;50.106;8.580;2023-10-09T00:38:41;6.10;;;5.60;;
11245;SDS011;59870;50.106;8.580;2023-10-09T00:41:16;6.20;;;5.70;;
11245;SDS011;59870;50.106;8.580;2023-10-09T00:43:52;6.77;;;5.90;;
11245;SDS011;59870;50.106;8.580;2023-10-09T00:46:20;6.83;;;6.33;;
11245;SDS011;59870;50.106;8.580;2023-10-09T00:48:51;6.50;;;6.10;;
11245;SDS011;59870;50.106;8.580;2023-10-09T00:51:21;6.27;;;5.87;;
11245;SDS011;59870;50.106;8.580;2023-10-09T00:53:52;6.37;;;5.97;;
11245;SDS011;59870;50.106;8.580;2023-10-09T00:56:25;7.17;;;6.60;;
11245;SDS011;59870;50.106;8.580;2023-10-09T00:58:55;6.43;;;5.93;;
11245;SDS011;59870;50.106;8.580;2023-10-09T01:01:43;6.87;;;6.37;;
11245;SDS011;59870;50.106;8.580;2023-10-09T01:04:31;7.60;;;6.87;;
11245;SDS011;59870;50.106;8.580;2023-10-09T01:07:04;7.07;;;6.47;;
11245;SDS011;59870;50.106;8.580;2023-10-09T01:09:36;6.33;;;5.80;;
11245;SDS011;59870;50.106;8.580;2023-10-09T01:12:10;7.27;;;6.57;;
11245;SDS011;59870;50.106;8.580;2023-10-09T01:14:44;6.33;;;5.83;;
11245;SDS011;59870;50.106;8.580;2023-10-09T01:17:13;6.33;;;5.90;;
11245;SDS011;59870;50.106;8.580;2023-10-09T01:19:56;6.93;;;6.33;;
11245;SDS011;59870;50.106;8.580;2023-10-09T01:22:30;7.87;;;5.97;;
11245;SDS011;59870;50.106;8.580;2023-10-09T01:24:57;6.93;;;6.17;;
11245;SDS011;59870;50.106;8.580;2023-10-09T01:27:25;6.77;;;6.37;;
11245;SDS011;59870;50.106;8.580;2023-10-09T01:29:59;6.47;;;6.00;;
11245;SDS011;59870;50.106;8.580;2023-10-09T01:32:28;6.27;;;5.90;;
11245;SDS011;59870;50.106;8.580;2023-10-09T01:34:56;7.03;;;6.47;;
11245;SDS011;59870;50.106;8.580;2023-10-09T01:37:25;6.37;;;5.90;;
11245;SDS011;59870;50.106;8.580;2023-10-09T01:39:58;7.00;;;6.37;;
11245;SDS011;59870;50.106;8.580;2023-10-09T01:42:43;6.47;;;5.97;;
11245;SDS011;59870;50.106;8.580;2023-10-09T01:45:14;6.30;;;5.80;;
11245;SDS011;59870;50.106;8.580;2023-10-09T01:47:47;6.53;;;6.10;;
11245;SDS011;59870;50.106;8.580;2023-10-09T01:50:23;8.70;;;6.50;;
11245;SDS011;59870;50.106;8.580;2023-10-09T01:53:02;6.27;;;5.60;;
11245;SDS011;59870;50.106;8.580;2023-10-09T01:55:32;6.43;;;5.93;;
11245;SDS011;59870;50.106;8.580;2023-10-09T01:58:07;6.10;;;5.70;;
11245;SDS011;59870;50.106;8.580;2023-10-09T02:00:44;6.50;;;6.10;;
11245;SDS011;59870;50.106;8.580;2023-10-09T02:03:17;6.87;;;6.47;;
11245;SDS011;59870;50.106;8.580;2023-10-09T02:05:45;6.50;;;6.00;;
11245;SDS011;59870;50.106;8.580;2023-10-09T02:08:13;7.70;;;7.10;;
11245;SDS011;59870;50.106;8.580;2023-10-09T02:10:41;7.93;;;7.23;;
11245;SDS011;59870;50.106;8.580;2023-10-09T02:13:15;8.00;;;7.50;;
11245;SDS011;59870;50.106;8.580;2023-10-09T02:15:45;12.67;;;7.60;;
11245;SDS011;59870;50.106;8.580;2023-10-09T02:18:20;8.10;;;7.60;;
11245;SDS011;59870;50.106;8.580;2023-10-09T02:21:12;9.00;;;8.33;;
11245;SDS011;59870;50.106;8.580;2023-10-09T02:23:39;9.27;;;7.67;;
11245;SDS011;59870;50.106;8.580;2023-10-09T02:26:19;8.83;;;7.93;;
11245;SDS011;59870;50.106;8.580;2023-10-09T02:28:53;8.73;;;7.83;;
11245;SDS011;59870;50.106;8.580;2023-10-09T02:31:41;7.40;;;6.90;;
11245;SDS011;59870;50.106;8.580;2023-10-09T02:34:14;8.10;;;7.60;;
11245;SDS011;59870;50.106;8.580;2023-10-09T02:36:43;10.80;;;8.10;;
11245;SDS011;59870;50.106;8.580;2023-10-09T02:39:16;8.03;;;7.23;;
11245;SDS011;59870;50.106;8.580;2023-10-09T02:41:58;8.00;;;7.40;;
11245;SDS011;59870;50.106;8.580;2023-10-09T02:44:34;10.70;;;8.23;;
11245;SDS011;59870;50.106;8.580;2023-10-09T02:47:07;8.80;;;8.20;;
11245;SDS011;59870;50.106;8.580;2023-10-09T02:49:48;8.83;;;7.93;;
11245;SDS011;59870;50.106;8.580;2023-10-09T02:52:18;9.63;;;8.60;;
11245;SDS011;59870;50.106;8.580;2023-10-09T02:54:46;8.47;;;7.83;;
11245;SDS011;59870;50.106;8.580;2023-10-09T02:57:14;8.17;;;7.57;;
11245;SDS011;59870;50.106;8.580;2023-10-09T02:59:51;9.03;;;8.00;;
11245;SDS011;59870;50.106;8.580;2023-10-09T03:02:18;7.70;;;7.13;;
11245;SDS011;59870;50.106;8.580;2023-10-09T03:04:46;7.07;;;6.53;;
11245;SDS011;59870;50.106;8.580;2023-10-09T03:07:14;6.70;;;6.20;;
11245;SDS011;59870;50.106;8.580;2023-10-09T03:09:42;7.10;;;6.50;;
11245;SDS011;59870;50.106;8.580;2023-10-09T03:12:09;9.90;;;7.10;;
11245;SDS011;59870;50.106;8.580;2023-10-09T03:14:39;8.00;;;7.30;;
11245;SDS011;59870;50.106;8.580;2023-10-09T03:17:08;12.97;;;7.50;;
11245;SDS011;59870;50.106;8.580;2023-10-09T03:19:39;8.50;;;7.70;;
11245;SDS011;59870;50.106;8.580;2023-10-09T03:22:10;8.33;;;7.53;;
11245;SDS011;59870;50.106;8.580;2023-10-09T03:24:39;8.17;;;7.57;;
11245;SDS011;59870;50.106;8.580;2023-10-09T03:27:16;7.87;;;7.07;;
11245;SDS011;59870;50.106;8.580;2023-10-09T03:29:45;8.03;;;7.30;;
11245;SDS011;59870;50.106;8.580;2023-10-09T03:32:17;9.70;;;7.23;;
11245;SDS011;59870;50.106;8.580;2023-10-09T03:34:46;7.80;;;7.17;;
11245;SDS011;59870;50.106;8.580;2023-10-09T03:37:20;7.60;;;6.90;;
11245;SDS011;59870;50.106;8.580;2023-10-09T03:39:49;7.27;;;6.70;;
11245;SDS011;59870;50.106;8.580;2023-10-09T03:42:22;8.90;;;8.10;;
11245;SDS011;59870;50.106;8.580;2023-10-09T03:44:51;8.57;;;7.87;;
11245;SDS011;59870;50.106;8.580;2023-10-09T03:47:24;9.67;;;7.23;;
11245;SDS011;59870;50.106;8.580;2023-10-09T03:49:54;7.47;;;6.77;;
11245;SDS011;59870;50.106;8.580;2023-10-09T03:52:23;8.17;;;7.57;;
11245;SDS011;59870;50.106;8.580;2023-10-09T03:54:54;7.87;;;7.17;;
11245;SDS011;59870;50.106;8.580;2023-10-09T03:57:22;7.47;;;6.97;;
11245;SDS011;59870;50.106;8.580;2023-10-09T03:59:51;6.80;;;6.40;;
11245;SDS011;59870;50.106;8.580;2023-10-09T04:02:19;7.63;;;7.00;;
11245;SDS011;59870;50.106;8.580;2023-10-09T04:04:49;7.93;;;7.30;;
11245;SDS011;59870;50.106;8.580;2023-10-09T04:07:18;8.07;;;7.23;;
11245;SDS011;59870;50.106;8.580;2023-10-09T04:09:45;7.53;;;6.83;;
11245;SDS011;59870;50.106;8.580;2023-10-09T04:12:18;8.37;;;7.37;;
11245;SDS011;59870;50.106;8.580;2023-10-09T04:14:52;8.00;;;7.30;;
11245;SDS011;59870;50.106;8.580;2023-10-09T04:17:29;8.13;;;7.27;;
11245;SDS011;59870;50.106;8.580;2023-10-09T04:19:56;8.37;;;7.60;;
11245;SDS011;59870;50.106;8.580;2023-10-09T04:22:44;9.47;;;7.53;;
11245;SDS011;59870;50.106;8.580;2023-10-09T04:25:18;8.30;;;7.50;;
11245;SDS011;59870;50.106;8.580;2023-10-09T04:27:53;7.80;;;7.10;;
11245;SDS011;59870;50.106;8.580;2023-10-09T04:30:25;8.20;;;7.47;;
11245;SDS011;59870;50.106;8.580;2023-10-09T04:32:53;8.20;;;7.40;;
11245;SDS011;59870;50.106;8.580;2023-10-09T04:35:29;9.87;;;7.23;;
11245;SDS011;59870;50.106;8.580;2023-10-09T04:37:57;8.97;;;8.17;;
11245;SDS011;59870;50.106;8.580;2023-10-09T04:40:32;8.53;;;7.77;;
11245;SDS011;59870;50.106;8.580;2023-10-09T04:43:12;7.60;;;7.10;;
11245;SDS011;59870;50.106;8.580;2023-10-09T04:45:50;10.10;;;7.80;;
11245;SDS011;59870;50.106;8.580;2023-10-09T04:48:46;8.50;;;7.80;;
11245;SDS011;59870;50.106;8.580;2023-10-09T04:51:15;8.00;;;7.30;;
11245;SDS011;59870;50.106;8.580;2023-10-09T04:53:49;8.27;;;7.67;;
11245;SDS011;59870;50.106;8.580;2023-10-09T04:56:35;12.83;;;8.30;;
11245;SDS011;59870;50.106;8.580;2023-10-09T04:59:18;8.70;;;8.00;;
11245;SDS011;59870;50.106;8.580;2023-10-09T05:01:47;9.70;;;8.33;;
11245;SDS011;59870;50.106;8.580;2023-10-09T05:04:25;13.20;;;8.40;;
11245;SDS011;59870;50.106;8.580;2023-10-09T05:07:18;9.20;;;8.30;;
11245;SDS011;59870;50.106;8.580;2023-10-09T05:10:04;10.47;;;9.57;;
11245;SDS011;59870;50.106;8.580;2023-10-09T05:12:41;9.00;;;8.10;;
11245;SDS011;59870;50.106;8.580;2023-10-09T05:15:23;13.30;;;9.57;;
11245;SDS011;59870;50.106;8.580;2023-10-09T05:17:56;10.23;;;9.10;;
11245;SDS011;59870;50.106;8.580;2023-10-09T05:20:24;12.37;;;8.60;;
11245;SDS011;59870;50.106;8.580;2023-10-09T05:22:55;11.87;;;9.57;;
11245;SDS011;59870;50.106;8.580;2023-10-09T05:25:25;9.63;;;8.67;;
11245;SDS011;59870;50.106;8.580;2023-10-09T05:28:12;13.67;;;8.77;;
11245;SDS011;59870;50.106;8.580;2023-10-09T05:30:59;11.23;;;10.03;;
11245;SDS011;59870;50.106;8.580;2023-10-09T05:33:36;10.47;;;9.30;;
11245;SDS011;59870;50.106;8.580;2023-10-09T05:36:05;14.20;;;9.67;;
11245;SDS011;59870;50.106;8.580;2023-10-09T05:38:59;10.67;;;8.57;;
11245;SDS011;59870;50.106;8.580;2023-10-09T05:41:45;12.33;;;9.37;;
11245;SDS011;59870;50.106;8.580;2023-10-09T05:44:15;10.07;;;9.23;;
11245;SDS011;59870;50.106;8.580;2023-10-09T05:47:08;10.80;;;9.70;;
11245;SDS011;59870;50.106;8.580;2023-10-09T05:49:54;10.53;;;9.43;;
11245;SDS011;59870;50.106;8.580;2023-10-09T05:52:25;10.23;;;8.80;;
11245;SDS011;59870;50.106;8.580;2023-10-09T05:55:05;10.03;;;9.03;;
11245;SDS011;59870;50.106;8.580;2023-10-09T05:57:48;15.60;;;10.27;;
11245;SDS011;59870;50.106;8.580;2023-10-09T06:00:34;12.43;;;9.70;;
11245;SDS011;59870;50.106;8.580;2023-10-09T06:03:22;9.83;;;8.87;;
11245;SDS011;59870;50.106;8.580;2023-10-09T06:05:53;9.83;;;8.83;;
11245;SDS011;59870;50.106;8.580;2023-10-09T06:08:25;10.73;;;8.70;;
11245;SDS011;59870;50.106;8.580;2023-10-09T06:11:08;10.97;;;8.80;;
11245;SDS011;59870;50.106;8.580;2023-10-09T06:13:56;10.70;;;8.50;;
11245;SDS011;59870;50.106;8.580;2023-10-09T06:16:33;10.87;;;9.23;;
11245;SDS011;59870;50.106;8.580;2023-10-09T06:19:13;9.90;;;8.90;;
11245;SDS011;59870;50.106;8.580;2023-10-09T06:21:47;14.00;;;9.70;;
11245;SDS011;59870;50.106;8.580;2023-10-09T06:24:33;15.47;;;10.20;;
11245;SDS011;59870;50.106;8.580;2023-10-09T06:27:11;12.93;;;9.77;;
11245;SDS011;59870;50.106;8.580;2023-10-09T06:29:40;12.17;;;9.53;;
11245;SDS011;59870;50.106;8.580;2023-10-09T06:32:12;12.67;;;9.93;;
11245;SDS011;59870;50.106;8.580;2023-10-09T06:34:53;10.93;;;8.83;;
11245;SDS011;59870;50.106;8.580;2023-10-09T06:37:45;15.20;;;10.37;;
11245;SDS011;59870;50.106;8.580;2023-10-09T06:40:46;16.93;;;9.73;;
11245;SDS011;59870;50.106;8.580;2023-10-09T06:43:33;14.73;;;9.60;;
11245;SDS011;59870;50.106;8.580;2023-10-09T06:46:04;11.87;;;9.40;;
11245;SDS011;59870;50.106;8.580;2023-10-09T06:48:50;13.03;;;9.73;;
11245;SDS011;59870;50.106;8.580;2023-10-09T06:51:25;9.70;;;8.80;;
11245;SDS011;59870;50.106;8.580;2023-10-09T06:53:56;10.67;;;8.43;;
11245;SDS011;59870;50.106;8.580;2023-10-09T06:56:33;20.37;;;9.67;;
11245;SDS011;59870;50.106;8.580;2023-10-09T06:59:04;11.83;;;9.57;;
11245;SDS011;59870;50.106;8.580;2023-10-09T07:01:44;15.83;;;10.90;;
11245;SDS011;59870;50.106;8.580;2023-10-09T07:04:13;11.63;;;9.10;;
11245;SDS011;59870;50.106;8.580;2023-10-09T07:07:07;12.00;;;9.40;;
11245;SDS011;59870;50.106;8.580;2023-10-09T07:09:39;15.33;;;9.73;;
11245;SDS011;59870;50.106;8.580;2023-10-09T07:12:12;14.13;;;8.83;;
11245;SDS011;59870;50.106;8.580;2023-10-09T07:14:53;12.93;;;9.70;;
11245;SDS011;59870;50.106;8.580;2023-10-09T07:17:23;18.07;;;9.50;;
11245;SDS011;59870;50.106;8.580;2023-10-09T07:20:03;11.97;;;8.73;;
11245;SDS011;59870;50.106;8.580;2023-10-09T07:22:37;9.60;;;8.87;;
11245;SDS011;59870;50.106;8.580;2023-10-09T07:25:20;9.87;;;8.87;;
11245;SDS011;59870;50.106;8.580;2023-10-09T07:28:06;14.27;;;9.70;;
11245;SDS011;59870;50.106;8.580;2023-10-09T07:30:45;10.00;;;9.00;;
11245;SDS011;59870;50.106;8.580;2023-10-09T07:33:13;14.53;;;9.77;;
11245;SDS011;59870;50.106;8.580;2023-10-09T07:35:48;11.30;;;9.13;;
11245;SDS011;59870;50.106;8.580;2023-10-09T07:38:22;22.43;;;9.47;;
11245;SDS011;59870;50.106;8.580;2023-10-09T07:40:56;13.53;;;9.07;;
11245;SDS011;59870;50.106;8.580;2023-10-09T07:43:35;9.63;;;8.77;;
11245;SDS011;59870;50.106;8.580;2023-10-09T07:46:07;12.47;;;8.97;;
11245;SDS011;59870;50.106;8.580;2023-10-09T07:49:04;10.23;;;9.10;;
11245;SDS011;59870;50.106;8.580;2023-10-09T07:51:51;10.90;;;8.23;;
11245;SDS011;59870;50.106;8.580;2023-10-09T07:54:22;13.87;;;9.27;;
11245;SDS011;59870;50.106;8.580;2023-10-09T07:56:59;12.93;;;8.83;;
11245;SDS011;59870;50.106;8.580;2023-10-09T07:59:36;9.53;;;8.53;;
11245;SDS011;59870;50.106;8.580;2023-10-09T08:02:08;9.93;;;8.87;;
11245;SDS011;59870;50.106;8.580;2023-10-09T08:04:40;11.47;;;9.07;;
11245;SDS011;59870;50.106;8.580;2023-10-09T08:07:17;17.90;;;8.83;;
11245;SDS011;59870;50.106;8.580;2023-10-09T08:10:21;12.90;;;8.77;;
11245;SDS011;59870;50.106;8.580;2023-10-09T08:12:48;12.43;;;9.07;;
11245;SDS011;59870;50.106;8.580;2023-10-09T08:15:17;11.07;;;8.30;;
11245;SDS011;59870;50.106;8.580;2023-10-09T08:17:56;12.27;;;9.20;;
11245;SDS011;59870;50.106;8.580;2023-10-09T08:20:31;12.00;;;8.27;;
11245;SDS011;59870;50.106;8.580;2023-10-09T08:23:18;11.17;;;8.80;;
11245;SDS011;59870;50.106;8.580;2023-10-09T08:26:16;13.10;;;7.90;;
11245;SDS011;59870;50.106;8.580;2023-10-09T08:28:56;9.03;;;8.17;;
11245;SDS011;59870;50.106;8.580;2023-10-09T08:31:42;10.63;;;8.10;;
11245;SDS011;59870;50.106;8.580;2023-10-09T08:34:13;12.10;;;8.43;;
11245;SDS011;59870;50.106;8.580;2023-10-09T08:37:10;11.90;;;8.20;;
11245;SDS011;59870;50.106;8.580;2023-10-09T08:39:40;10.80;;;7.93;;
11245;SDS011;59870;50.106;8.580;2023-10-09T08:42:09;9.73;;;7.83;;
11245;SDS011;59870;50.106;8.580;2023-10-09T08:44:37;11.60;;;8.37;;
11245;SDS011;59870;50.106;8.580;2023-10-09T08:47:11;9.93;;;8.13;;
11245;SDS011;59870;50.106;8.580;2023-10-09T08:49:39;10.60;;;7.77;;
11245;SDS011;59870;50.106;8.580;2023-10-09T08:52:06;13.40;;;8.20;;
11245;SDS011;59870;50.106;8.580;2023-10-09T08:54:37;10.80;;;8.27;;
11245;SDS011;59870;50.106;8.580;2023-10-09T08:57:05;8.70;;;7.90;;
11245;SDS011;59870;50.106;8.580;2023-10-09T08:59:40;10.67;;;8.03;;
11245;SDS011;59870;50.106;8.580;2023-10-09T09:02:13;13.00;;;8.23;;
11245;SDS011;59870;50.106;8.580;2023-10-09T09:04:42;10.83;;;7.53;;
11245;SDS011;59870;50.106;8.580;2023-10-09T09:07:25;15.30;;;8.53;;
11245;SDS011;59870;50.106;8.580;2023-10-09T09:09:59;8.43;;;7.73;;
11245;SDS011;59870;50.106;8.580;2023-10-09T09:12:46;11.40;;;8.33;;
11245;SDS011;59870;50.106;8.580;2023-10-09T09:15:20;9.40;;;7.97;;
11245;SDS011;59870;50.106;8.580;2023-10-09T09:17:48;12.63;;;8.63;;
11245;SDS011;59870;50.106;8.580;2023-10-09T09:23:01;9.07;;;8.10;;
11245;SDS011;59870;50.106;8.580;2023-10-09T09:25:42;10.13;;;8.30;;
11245;SDS011;59870;50.106;8.580;2023-10-09T09:28:15;13.03;;;8.27;;
11245;SDS011;59870;50.106;8.580;2023-10-09T09:30:52;9.57;;;8.03;;
11245;SDS011;59870;50.106;8.580;2023-10-09T09:33:22;10.50;;;7.90;;
11245;SDS011;59870;50.106;8.580;2023-10-09T09:36:00;11.60;;;8.33;;
11245;SDS011;59870;50.106;8.580;2023-10-09T09:38:31;10.90;;;8.27;;
11245;SDS011;59870;50.106;8.580;2023-10-09T09:41:19;9.53;;;8.53;;
11245;SDS011;59870;50.106;8.580;2023-10-09T09:43:53;16.50;;;9.10;;
11245;SDS011;59870;50.106;8.580;2023-10-09T09:46:32;12.80;;;8.43;;
11245;SDS011;59870;50.106;8.580;2023-10-09T09:49:02;11.20;;;8.57;;
11245;SDS011;59870;50.106;8.580;2023-10-09T09:51:32;9.90;;;8.30;;
11245;SDS011;59870;50.106;8.580;2023-10-09T09:54:01;9.10;;;7.83;;
11245;SDS011;59870;50.106;8.580;2023-10-09T09:56:29;11.77;;;8.27;;
11245;SDS011;59870;50.106;8.580;2023-10-09T09:59:02;8.33;;;7.63;;
11245;SDS011;59870;50.106;8.580;2023-10-09T10:01:34;14.37;;;8.93;;
11245;SDS011;59870;50.106;8.580;2023-10-09T10:06:42;16.27;;;9.23;;
11245;SDS011;59870;50.106;8.580;2023-10-09T10:09:34;14.87;;;9.03;;
11245;SDS011;59870;50.106;8.580;2023-10-09T10:12:06;11.90;;;8.07;;
11245;SDS011;59870;50.106;8.580;2023-10-09T10:14:51;12.53;;;8.60;;
11245;SDS011;59870;50.106;8.580;2023-10-09T10:17:20;13.07;;;7.77;;
11245;SDS011;59870;50.106;8.580;2023-10-09T10:19:58;11.30;;;8.53;;
11245;SDS011;59870;50.106;8.580;2023-10-09T10:22:27;9.60;;;8.53;;
11245;SDS011;59870;50.106;8.580;2023-10-09T10:24:56;11.00;;;8.83;;
11245;SDS011;59870;50.106;8.580;2023-10-09T10:27:28;10.10;;;8.40;;
11245;SDS011;59870;50.106;8.580;2023-10-09T10:32:57;10.17;;;8.33;;
11245;SDS011;59870;50.106;8.580;2023-10-09T10:35:45;10.03;;;8.00;;
11245;SDS011;59870;50.106;8.580;2023-10-09T10:38:32;9.17;;;8.17;;
11245;SDS011;59870;50.106;8.580;2023-10-09T10:41:14;15.53;;;9.13;;
11245;SDS011;59870;50.106;8.580;2023-10-09T10:43:58;11.80;;;7.27;;
11245;SDS011;59870;50.106;8.580;2023-10-09T10:46:40;13.03;;;8.97;;
11245;SDS011;59870;50.106;8.580;2023-10-09T10:49:11;10.17;;;8.27;;
11245;SDS011;59870;50.106;8.580;2023-10-09T10:51:53;10.43;;;8.57;;
11245;SDS011;59870;50.106;8.580;2023-10-09T10:54:42;11.27;;;7.80;;
11245;SDS011;59870;50.106;8.580;2023-10-09T10:57:19;10.23;;;8.17;;
11245;SDS011;59870;50.106;8.580;2023-10-09T11:00:10;13.70;;;8.60;;
11245;SDS011;59870;50.106;8.580;2023-10-09T11:02:57;9.03;;;7.70;;
11245;SDS011;59870;50.106;8.580;2023-10-09T11:05:41;9.93;;;7.93;;
11245;SDS011;59870;50.106;8.580;2023-10-09T11:08:09;11.60;;;8.40;;
11245;SDS011;59870;50.106;8.580;2023-10-09T11:10:37;9.63;;;8.63;;
11245;SDS011;59870;50.106;8.580;2023-10-09T11:13:20;8.30;;;7.10;;
11245;SDS011;59870;50.106;8.580;2023-10-09T11:16:04;14.67;;;8.60;;
11245;SDS011;59870;50.106;8.580;2023-10-09T11:18:56;15.53;;;8.07;;
11245;SDS011;59870;50.106;8.580;2023-10-09T11:21:24;10.00;;;7.67;;
11245;SDS011;59870;50.106;8.580;2023-10-09T11:23:58;14.00;;;8.57;;
11245;SDS011;59870;50.106;8.580;2023-10-09T11:26:27;9.73;;;8.47;;
11245;SDS011;59870;50.106;8.580;2023-10-09T11:29:11;12.53;;;8.83;;
11245;SDS011;59870;50.106;8.580;2023-10-09T11:31:41;15.10;;;7.97;;
11245;SDS011;59870;50.106;8.580;2023-10-09T11:34:24;15.27;;;7.10;;
11245;SDS011;59870;50.106;8.580;2023-10-09T11:37:07;8.33;;;7.47;;
11245;SDS011;59870;50.106;8.580;2023-10-09T11:39:59;9.53;;;7.37;;
11245;SDS011;59870;50.106;8.580;2023-10-09T11:42:28;11.43;;;7.53;;
11245;SDS011;59870;50.106;8.580;2023-10-09T11:45:25;10.53;;;7.83;;
11245;SDS011;59870;50.106;8.580;2023-10-09T11:47:57;10.17;;;7.27;;
11245;SDS011;59870;50.106;8.580;2023-10-09T11:50:51;11.40;;;6.67;;
11245;SDS011;59870;50.106;8.580;2023-10-09T11:53:43;13.13;;;7.60;;
11245;SDS011;59870;50.106;8.580;2023-10-09T11:56:13;15.00;;;7.63;;
11245;SDS011;59870;50.106;8.580;2023-10-09T11:58:46;12.80;;;8.00;;
11245;SDS011;59870;50.106;8.580;2023-10-09T12:01:16;7.50;;;6.80;;
11245;SDS011;59870;50.106;8.580;2023-10-09T12:03:47;15.93;;;8.00;;
11245;SDS011;59870;50.106;8.580;2023-10-09T12:06:20;10.13;;;7.27;;
11245;SDS011;59870;50.106;8.580;2023-10-09T12:08:56;8.23;;;7.17;;
11245;SDS011;59870;50.106;8.580;2023-10-09T12:11:25;9.00;;;7.07;;
11245;SDS011;59870;50.106;8.580;2023-10-09T12:13:56;8.57;;;7.40;;
11245;SDS011;59870;50.106;8.580;2023-10-09T12:16:25;8.73;;;7.30;;
11245;SDS011;59870;50.106;8.580;2023-10-09T12:18:56;10.50;;;6.97;;
11245;SDS011;59870;50.106;8.580;2023-10-09T12:21:24;12.77;;;7.47;;
11245;SDS011;59870;50.106;8.580;2023-10-09T12:23:56;10.60;;;7.47;;
11245;SDS011;59870;50.106;8.580;2023-10-09T12:26:28;8.47;;;7.60;;
11245;SDS011;59870;50.106;8.580;2023-10-09T12:29:02;11.07;;;7.23;;
11245;SDS011;59870;50.106;8.580;2023-10-09T12:31:29;7.53;;;6.83;;
11245;SDS011;59870;50.106;8.580;2023-10-09T12:34:01;8.93;;;7.70;;
11245;SDS011;59870;50.106;8.580;2023-10-09T12:36:29;7.20;;;6.60;;
11245;SDS011;59870;50.106;8.580;2023-10-09T12:38:57;9.10;;;6.87;;
11245;SDS011;59870;50.106;8.580;2023-10-09T12:41:28;8.23;;;7.40;;
11245;SDS011;59870;50.106;8.580;2023-10-09T12:44:00;9.23;;;7.53;;
11245;SDS011;59870;50.106;8.580;2023-10-09T12:46:29;9.03;;;7.97;;
11245;SDS011;59870;50.106;8.580;2023-10-09T12:49:05;10.80;;;7.57;;
11245;SDS011;59870;50.106;8.580;2023-10-09T12:51:34;8.70;;;7.90;;
11245;SDS011;59870;50.106;8.580;2023-10-09T12:54:02;8.63;;;7.73;;
11245;SDS011;59870;50.106;8.580;2023-10-09T12:56:29;10.07;;;7.17;;
11245;SDS011;59870;50.106;8.580;2023-10-09T12:59:00;9.50;;;8.40;;
11245;SDS011;59870;50.106;8.580;2023-10-09T13:01:29;8.30;;;7.50;;
11245;SDS011;59870;50.106;8.580;2023-10-09T13:03:59;7.73;;;6.93;;
11245;SDS011;59870;50.106;8.580;2023-10-09T13:06:27;8.13;;;7.43;;
11245;SDS011;59870;50.106;8.580;2023-10-09T13:08:54;7.53;;;6.93;;
11245;SDS011;59870;50.106;8.580;2023-10-09T13:11:26;8.90;;;6.90;;
11245;SDS011;59870;50.106;8.580;2023-10-09T13:13:54;9.93;;;7.00;;
11245;SDS011;59870;50.106;8.580;2023-10-09T13:16:22;9.67;;;7.10;;
11245;SDS011;59870;50.106;8.580;2023-10-09T13:18:53;8.90;;;7.53;;
11245;SDS011;59870;50.106;8.580;2023-10-09T13:21:32;7.60;;;6.77;;
11245;SDS011;59870;50.106;8.580;2023-10-09T13:24:01;7.60;;;6.90;;
11245;SDS011;59870;50.106;8.580;2023-10-09T13:26:29;7.53;;;6.87;;
11245;SDS011;59870;50.106;8.580;2023-10-09T13:29:01;10.20;;;8.27;;
11245;SDS011;59870;50.106;8.580;2023-10-09T13:31:31;12.27;;;7.33;;
11245;SDS011;59870;50.106;8.580;2023-10-09T13:34:06;10.07;;;8.00;;
11245;SDS011;59870;50.106;8.580;2023-10-09T13:36:36;8.80;;;7.97;;
11245;SDS011;59870;50.106;8.580;2023-10-09T13:39:05;8.33;;;7.30;;
11245;SDS011;59870;50.106;8.580;2023-10-09T13:41:58;7.93;;;7.37;;
11245;SDS011;59870;50.106;8.580;2023-10-09T13:44:28;10.80;;;8.73;;
11245;SDS011;59870;50.106;8.580;2023-10-09T13:46:57;8.50;;;7.80;;
11245;SDS011;59870;50.106;8.580;2023-10-09T13:49:27;9.30;;;7.60;;
11245;SDS011;59870;50.106;8.580;2023-10-09T13:51:59;15.27;;;8.40;;
11245;SDS011;59870;50.106;8.580;2023-10-09T13:54:30;9.87;;;7.93;;
11245;SDS011;59870;50.106;8.580;2023-10-09T13:57:01;8.33;;;7.47;;
11245;SDS011;59870;50.106;8.580;2023-10-09T13:59:33;11.00;;;7.23;;
11245;SDS011;59870;50.106;8.580;2023-10-09T14:02:10;7.67;;;7.07;;
11245;SDS011;59870;50.106;8.580;2023-10-09T14:04:46;7.97;;;7.27;;
11245;SDS011;59870;50.106;8.580;2023-10-09T14:07:15;8.97;;;8.17;;
11245;SDS011;59870;50.106;8.580;2023-10-09T14:09:47;10.07;;;8.17;;
11245;SDS011;59870;50.106;8.580;2023-10-09T14:12:35;10.07;;;7.83;;
11245;SDS011;59870;50.106;8.580;2023-10-09T14:15:07;10.90;;;7.70;;
11245;SDS011;59870;50.106;8.580;2023-10-09T14:17:38;9.77;;;8.23;;
11245;SDS011;59870;50.106;8.580;2023-10-09T14:20:09;8.40;;;7.67;;
11245;SDS011;59870;50.106;8.580;2023-10-09T14:22:58;10.70;;;7.80;;
11245;SDS011;59870;50.106;8.580;2023-10-09T14:25:33;8.70;;;7.57;;
11245;SDS011;59870;50.106;8.580;2023-10-09T14:28:05;8.13;;;7.43;;
11245;SDS011;59870;50.106;8.580;2023-10-09T14:30:38;9.00;;;8.30;;
11245;SDS011;59870;50.106;8.580;2023-10-09T14:33:11;8.57;;;7.80;;
11245;SDS011;59870;50.106;8.580;2023-10-09T14:35:39;12.13;;;8.23;;
11245;SDS011;59870;50.106;8.580;2023-10-09T14:38:08;7.93;;;7.23;;
11245;SDS011;59870;50.106;8.580;2023-10-09T14:40:42;9.63;;;7.97;;
11245;SDS011;59870;50.106;8.580;2023-10-09T14:43:11;8.63;;;7.53;;
11245;SDS011;59870;50.106;8.580;2023-10-09T14:45:51;12.07;;;8.00;;
11245;SDS011;59870;50.106;8.580;2023-10-09T14:48:21;9.53;;;8.53;;
11245;SDS011;59870;50.106;8.580;2023-10-09T14:50:56;8.77;;;7.87;;
11245;SDS011;59870;50.106;8.580;2023-10-09T14:53:35;9.23;;;7.70;;
11245;SDS011;59870;50.106;8.580;2023-10-09T14:56:02;9.67;;;8.77;;
11245;SDS011;59870;50.106;8.580;2023-10-09T14:58:36;9.93;;;8.30;;
11245;SDS011;59870;50.106;8.580;2023-10-09T15:01:12;10.87;;;8.77;;
11245;SDS011;59870;50.106;8.580;2023-10-09T15:03:42;9.17;;;8.37;;
11245;SDS011;59870;50.106;8.580;2023-10-09T15:06:10;8.50;;;7.73;;
11245;SDS011;59870;50.106;8.580;2023-10-09T15:08:37;9.03;;;8.33;;
11245;SDS011;59870;50.106;8.580;2023-10-09T15:11:05;14.40;;;7.93;;
11245;SDS011;59870;50.106;8.580;2023-10-09T15:13:33;13.80;;;8.00;;
11245;SDS011;59870;50.106;8.580;2023-10-09T15:16:01;9.83;;;8.93;;
11245;SDS011;59870;50.106;8.580;2023-10-09T15:18:32;8.17;;;7.30;;
11245;SDS011;59870;50.106;8.580;2023-10-09T15:21:00;8.43;;;7.53;;
11245;SDS011;59870;50.106;8.580;2023-10-09T15:23:28;9.60;;;7.87;;
11245;SDS011;59870;50.106;8.580;2023-10-09T15:25:57;8.47;;;7.73;;
11245;SDS011;59870;50.106;8.580;2023-10-09T15:28:24;10.20;;;7.90;;
11245;SDS011;59870;50.106;8.580;2023-10-09T15:30:58;9.40;;;8.30;;
11245;SDS011;59870;50.106;8.580;2023-10-09T15:33:26;8.83;;;8.13;;